createdAt,value
2022-09-20T00:00:04.321Z,9.91
2022-09-20T00:05:27.597Z,9.91
2022-09-20T00:10:36.281Z,9.90
2022-09-20T00:15:45.119Z,9.88
2022-09-20T00:20:50.202Z,9.81
2022-09-20T00:26:01.672Z,9.75
2022-09-20T00:31:05.292Z,9.67
2022-09-20T00:36:08.437Z,9.58
2022-09-20T00:41:11.538Z,9.48
2022-09-20T00:46:29.267Z,9.41
2022-09-20T00:51:38.194Z,9.39
2022-09-20T00:56:44.295Z,9.39
2022-09-20T01:01:53.165Z,9.40
2022-09-20T01:07:02.355Z,9.41
2022-09-20T01:12:09.825Z,9.39
2022-09-20T01:17:14.198Z,9.35
2022-09-20T01:22:23.143Z,9.31
2022-09-20T01:27:52.575Z,9.28
2022-09-20T01:33:09.804Z,9.28
2022-09-20T01:38:25.196Z,9.32
2022-09-20T01:43:49.268Z,9.38
2022-09-20T01:48:59.597Z,9.42
2022-09-20T01:54:21.150Z,9.46
2022-09-20T01:59:43.075Z,9.50
2022-09-20T02:05:30.727Z,9.53
2022-09-20T02:11:05.284Z,9.56
2022-09-20T02:16:39.235Z,9.58
2022-09-20T02:21:51.494Z,9.60
2022-09-20T02:27:17.684Z,9.61
2022-09-20T02:32:39.075Z,9.63
2022-09-20T02:37:51.397Z,9.65
2022-09-20T02:43:03.747Z,9.65
2022-09-20T02:48:06.978Z,9.65
2022-09-20T02:53:36.122Z,9.64
2022-09-20T02:59:04.787Z,9.65
2022-09-20T03:04:07.784Z,9.65
2022-09-20T03:09:29.698Z,9.66
2022-09-20T03:14:35.567Z,9.65
2022-09-20T03:20:00.796Z,9.64
2022-09-20T03:25:39.536Z,9.62
2022-09-20T03:30:57.179Z,9.60
2022-09-20T03:36:08.885Z,9.56
2022-09-20T03:41:30.186Z,9.55
2022-09-20T03:46:46.847Z,9.54
2022-09-20T03:52:17.703Z,9.52
2022-09-20T03:58:08.753Z,9.50
2022-09-20T04:03:23.536Z,9.49
2022-09-20T04:09:03.887Z,9.50
2022-09-20T04:14:30.192Z,9.48
2022-09-20T04:19:42.332Z,9.44
2022-09-20T04:25:01.535Z,9.42
2022-09-20T04:30:07.743Z,9.42
2022-09-20T04:35:38.483Z,9.42
2022-09-20T04:40:41.635Z,9.43
2022-09-20T04:45:54.001Z,9.46
2022-09-20T04:51:07.663Z,9.50
2022-09-20T04:56:41.423Z,9.55
2022-09-20T05:02:26.323Z,9.59
2022-09-20T05:07:52.412Z,9.65
2022-09-20T05:13:09.952Z,9.71
2022-09-20T05:18:24.820Z,9.75
2022-09-20T05:23:46.570Z,9.79
2022-09-20T05:28:57.211Z,9.84
2022-09-20T05:34:16.628Z,9.91
2022-09-20T05:39:32.144Z,10.00
2022-09-20T05:44:49.789Z,10.08
2022-09-20T05:50:25.251Z,10.18
2022-09-20T05:55:43.613Z,10.32
2022-09-20T06:00:53.603Z,10.46
2022-09-20T06:06:07.459Z,10.55
2022-09-20T06:11:35.628Z,10.70
2022-09-20T06:16:43.133Z,10.92
2022-09-20T06:21:55.663Z,11.25
2022-09-20T06:27:04.811Z,11.70
2022-09-20T06:32:08.743Z,12.02
2022-09-20T06:37:36.846Z,12.22
2022-09-20T06:42:39.940Z,12.71
2022-09-20T06:47:43.060Z,13.29
2022-09-20T06:52:47.051Z,13.87
2022-09-20T06:57:51.772Z,14.32
2022-09-20T07:02:55.794Z,15.42
2022-09-20T07:08:00.174Z,18.74
2022-09-20T07:13:03.585Z,21.82
2022-09-20T07:18:08.589Z,25.13
2022-09-20T07:23:11.619Z,27.99
2022-09-20T07:28:14.856Z,30.48
2022-09-20T07:33:21.810Z,32.00
2022-09-20T07:38:25.131Z,30.26
2022-09-20T07:43:29.936Z,28.59
2022-09-20T07:48:36.247Z,27.58
2022-09-20T07:53:40.616Z,26.74
2022-09-20T07:58:48.749Z,26.72
2022-09-20T08:03:55.636Z,25.63
2022-09-20T08:08:58.842Z,24.05
2022-09-20T08:14:08.144Z,23.07
2022-09-20T08:19:23.531Z,23.05
2022-09-20T08:24:27.004Z,23.77
2022-09-20T08:29:30.622Z,25.86
2022-09-20T08:34:33.780Z,27.29
2022-09-20T08:45:22.255Z,28.00
2022-09-20T08:50:27.278Z,25.70
2022-09-20T08:55:37.731Z,24.25
2022-09-20T09:00:44.364Z,26.26
2022-09-20T09:05:51.173Z,28.97
2022-09-20T09:10:58.143Z,28.02
2022-09-20T09:16:07.855Z,26.59
2022-09-20T09:21:30.149Z,27.34
2022-09-20T09:26:39.192Z,30.04
2022-09-20T09:31:45.479Z,31.07
2022-09-20T09:36:49.193Z,32.84
2022-09-20T09:41:53.043Z,31.36
2022-09-20T09:46:57.755Z,32.66
2022-09-20T09:52:16.146Z,33.92
2022-09-20T09:57:49.130Z,33.81
2022-09-20T10:03:14.260Z,30.61
2022-09-20T10:08:36.273Z,27.82
2022-09-20T10:13:45.451Z,26.09
2022-09-20T10:18:59.410Z,24.94
2022-09-20T10:24:05.901Z,23.72
2022-09-20T10:29:24.589Z,22.67
2022-09-20T10:34:54.291Z,22.07
2022-09-20T10:40:53.104Z,21.91
2022-09-20T10:46:31.905Z,21.22
2022-09-20T10:51:54.920Z,20.24
2022-09-20T10:57:17.480Z,19.42
2022-09-20T11:02:52.233Z,18.77
2022-09-20T11:08:16.015Z,18.34
2022-09-20T11:13:38.786Z,18.20
2022-09-20T11:18:54.609Z,18.18
2022-09-20T11:24:14.821Z,18.28
2022-09-20T11:29:42.579Z,18.51
2022-09-20T11:34:59.507Z,18.42
2022-09-20T11:40:28.142Z,18.25
2022-09-20T11:45:32.160Z,18.35
2022-09-20T11:50:47.776Z,18.35
2022-09-20T11:55:51.045Z,18.24
2022-09-20T12:00:57.587Z,17.95
2022-09-20T12:06:09.853Z,17.73
2022-09-20T12:11:16.526Z,17.84
2022-09-20T12:16:36.994Z,17.74
2022-09-20T12:21:58.796Z,17.61
2022-09-20T12:27:21.976Z,17.46
2022-09-20T12:32:52.526Z,17.33
2022-09-20T12:37:56.141Z,17.43
2022-09-20T12:42:59.454Z,17.64
2022-09-20T12:48:03.069Z,17.81
2022-09-20T12:53:14.643Z,17.81
2022-09-20T12:58:23.208Z,17.80
2022-09-20T13:03:41.474Z,17.82
2022-09-20T13:09:04.548Z,17.84
2022-09-20T13:14:10.819Z,17.73
2022-09-20T13:19:30.617Z,17.52
2022-09-20T13:24:38.644Z,17.39
2022-09-20T13:29:44.972Z,17.56
2022-09-20T13:35:25.707Z,17.85
2022-09-20T13:40:39.313Z,17.95
2022-09-20T13:45:44.100Z,17.91
2022-09-20T13:50:52.743Z,17.94
2022-09-20T13:55:57.893Z,17.74
2022-09-20T14:01:09.947Z,17.40
2022-09-20T14:06:16.219Z,16.91
2022-09-20T14:11:24.316Z,16.48
2022-09-20T14:16:40.298Z,16.27
2022-09-20T14:21:44.859Z,16.07
2022-09-20T14:27:04.970Z,15.87
2022-09-20T14:32:18.728Z,15.74
2022-09-20T14:37:30.017Z,15.63
2022-09-20T14:42:43.110Z,15.47
2022-09-20T14:47:56.503Z,15.36
2022-09-20T14:53:03.358Z,15.22
2022-09-20T14:58:15.925Z,15.04
2022-09-20T15:03:39.582Z,14.94
2022-09-20T15:08:46.332Z,14.88
2022-09-20T15:13:49.724Z,14.80
2022-09-20T15:18:53.230Z,14.72
2022-09-20T15:23:57.160Z,14.65
2022-09-20T15:29:01.289Z,14.50
2022-09-20T15:34:07.677Z,14.34
2022-09-20T15:39:11.698Z,14.14
2022-09-20T15:44:19.315Z,13.92
2022-09-20T15:49:22.723Z,13.70
2022-09-20T15:54:27.061Z,13.50
2022-09-20T15:59:33.481Z,13.33
2022-09-20T16:04:37.881Z,13.20
2022-09-20T16:09:41.290Z,13.13
2022-09-20T16:14:45.220Z,13.08
2022-09-20T16:19:49.243Z,12.97
2022-09-20T16:24:52.839Z,12.84
2022-09-20T16:29:57.240Z,12.66
2022-09-20T16:35:05.564Z,12.50
2022-09-20T16:40:13.051Z,12.33
2022-09-20T16:45:17.409Z,12.17
2022-09-20T16:50:21.863Z,12.00
2022-09-20T16:55:25.137Z,11.82
2022-09-20T17:00:28.745Z,11.64
2022-09-20T17:05:33.140Z,11.46
2022-09-20T17:10:36.373Z,11.31
2022-09-20T17:15:40.185Z,11.18
2022-09-20T17:20:45.938Z,11.08
2022-09-20T17:25:51.178Z,11.00
2022-09-20T17:31:01.115Z,10.94
2022-09-20T17:36:06.798Z,10.87
2022-09-20T17:41:17.392Z,10.81
2022-09-20T17:46:26.510Z,10.77
2022-09-20T17:51:33.429Z,10.74
2022-09-20T17:56:37.511Z,10.71
2022-09-20T18:01:42.775Z,10.68
2022-09-20T18:06:50.167Z,10.65
2022-09-20T18:11:55.017Z,10.60
2022-09-20T18:17:01.666Z,10.53
2022-09-20T18:22:06.131Z,10.46
2022-09-20T18:27:09.730Z,10.43
2022-09-20T18:32:14.317Z,10.49
2022-09-20T18:37:19.351Z,10.58
2022-09-20T18:42:23.275Z,10.64
2022-09-20T18:47:28.809Z,10.70
2022-09-20T18:52:32.264Z,10.70
2022-09-20T18:57:36.170Z,10.67
2022-09-20T19:02:58.642Z,10.60
2022-09-20T19:08:20.680Z,10.50
2022-09-20T19:13:59.373Z,10.44
2022-09-20T19:19:26.306Z,10.37
2022-09-20T19:24:41.796Z,10.32
2022-09-20T19:29:46.655Z,10.26
2022-09-20T19:35:02.046Z,10.26
2022-09-20T19:40:12.670Z,10.33
2022-09-20T19:45:22.988Z,10.40
2022-09-20T19:50:49.682Z,10.46
2022-09-20T19:56:02.576Z,10.52
2022-09-20T20:01:07.563Z,10.54
2022-09-20T20:06:34.698Z,10.54
2022-09-20T20:11:41.689Z,10.53
2022-09-20T20:17:03.342Z,10.53
2022-09-20T20:22:16.066Z,10.53
2022-09-20T20:27:21.230Z,10.58
2022-09-20T20:32:24.528Z,10.64
2022-09-20T20:37:29.791Z,10.69
2022-09-20T20:42:34.110Z,10.72
2022-09-20T20:47:37.696Z,10.73
2022-09-20T20:52:41.374Z,10.72
2022-09-20T20:57:45.381Z,10.67
2022-09-20T21:02:49.347Z,10.60
2022-09-20T21:07:53.645Z,10.52
2022-09-20T21:12:58.779Z,10.47
2022-09-20T21:18:02.521Z,10.49
2022-09-20T21:23:06.443Z,10.54
2022-09-20T21:28:09.649Z,10.58
2022-09-20T21:33:12.757Z,10.61
2022-09-20T21:38:16.487Z,10.62
2022-09-20T21:43:19.582Z,10.60
2022-09-20T21:48:24.224Z,10.53
2022-09-20T21:53:27.470Z,10.45
2022-09-20T21:58:31.049Z,10.39
2022-09-20T22:03:39.611Z,10.35
2022-09-20T22:08:47.399Z,10.30
2022-09-20T22:13:52.593Z,10.24
2022-09-20T22:18:57.098Z,10.16
2022-09-20T22:24:03.042Z,10.10
2022-09-20T22:29:07.192Z,10.03
2022-09-20T22:34:11.425Z,9.97
2022-09-20T22:39:15.350Z,9.92
2022-09-20T22:44:18.454Z,9.87
2022-09-20T22:49:21.563Z,9.83
2022-09-20T22:54:24.666Z,9.81
2022-09-20T22:59:27.771Z,9.81
2022-09-20T23:04:31.081Z,9.79
2022-09-20T23:09:34.187Z,9.76
2022-09-20T23:14:37.189Z,9.74
2022-09-20T23:19:40.399Z,9.75
2022-09-20T23:24:43.607Z,9.76
2022-09-20T23:29:46.612Z,9.78
2022-09-20T23:34:50.003Z,9.76
2022-09-20T23:39:53.126Z,9.72
2022-09-20T23:44:56.133Z,9.66
2022-09-20T23:49:59.237Z,9.60
2022-09-20T23:55:02.343Z,9.55
